KMLP - Mullan Pass
Updated: Fri, 20-Oct-2017 10:24am PDT
Light snow, freezing, fog, overcast
Light snow, freezing, fog, overcast
 Wind from varies
Wind: varies at 6 mph , 9 km/h
Temperature : 28°F , -2°C
Wind Chill : 21°F , -6°C
Dew Point : 27°F , -3°C
Humidity : 93%
Barometer : 29.54 inHg , 1000.3 hPa
Summary : Light snow, freezing, fog
Clouds : Overcast
Visibility : 1/4 mile , 2 km
2017/10/20 17:24 KMLP 201724Z AUTO VRB05KT 1/4SM -SN FZFG VV002 M02/M03 A2954 RMK AO2 P0001 T10221028 TSNO $

 

KCOE - Coeur d Alene
Updated: Fri, 20-Oct-2017 9:56am PDT
Overcast
Overcast
 Wind from SSW
Wind: SSW at 7 mph , 11 km/h
Temperature : 43°F , 6°C
Wind Chill : 39°F , 4°C
Dew Point : 39°F , 4°C
Humidity : 87%
Barometer : 29.59 inHg , 1002 hPa
Clouds : Overcast
Visibility : 10 miles , 16 km
2017/10/20 16:56 KCOE 201656Z AUTO 20006KT 10SM OVC013 06/04 A2959 RMK AO2 RAE54 SLP042 P0001 T00610044

 

KLWS - Lewiston
Updated: Fri, 20-Oct-2017 9:56am PDT
Overcast
Overcast
 Wind from calm
Wind: Calm
Temperature : 48°F , 9°C
Dew Point : 43°F , 6°C
Humidity : 82%
Barometer : 29.65 inHg , 1004.1 hPa
Clouds : Overcast
Visibility : 10 miles , 16 km
2017/10/20 16:56 KLWS 201656Z 00000KT 10SM FEW050 BKN065 OVC100 09/06 A2965 RMK AO2 SLP043 BINOVC DSNT W T00890056

 

KGEG - Spokane Intl
Updated: Fri, 20-Oct-2017 9:53am PDT
Overcast
Overcast
 Wind from SSW
Wind: SSW at 16 mph , 26 km/h
Temperature : 43°F , 6°C
Wind Chill : 35°F , 2°C
Dew Point : 41°F , 5°C
Humidity : 93%
Barometer : 29.58 inHg , 1001.7 hPa
Clouds : Overcast
Visibility : 10 miles , 16 km
2017/10/20 16:53 KGEG 201653Z 21014KT 10SM SCT009 BKN011 BKN014 OVC150 06/05 A2958 RMK AO2 SLP020 T00610050